createdAt,value
2018-10-05T00:01:17.876Z,12.11
2018-10-05T00:03:46.061Z,12.11
2018-10-05T00:06:14.083Z,12.09
2018-10-05T00:08:42.128Z,12.08
2018-10-05T00:11:10.176Z,12.08
2018-10-05T00:13:38.217Z,12.07
2018-10-05T00:16:06.364Z,12.06
2018-10-05T00:18:34.379Z,12.05
2018-10-05T00:21:02.393Z,12.03
2018-10-05T00:23:30.400Z,12.00
2018-10-05T00:25:59.144Z,12.03
2018-10-05T00:28:27.187Z,12.00
2018-10-05T00:30:55.232Z,11.98
2018-10-05T00:33:23.356Z,12.00
2018-10-05T00:35:51.375Z,12.00
2018-10-05T00:38:19.444Z,12.00
2018-10-05T00:40:47.471Z,12.01
2018-10-05T00:43:26.348Z,12.03
2018-10-05T00:45:54.359Z,12.00
2018-10-05T00:48:22.584Z,11.98
2018-10-05T00:50:51.748Z,11.95
2018-10-05T00:53:19.798Z,11.93
2018-10-05T00:55:47.787Z,11.94
2018-10-05T00:58:15.840Z,11.93
2018-10-05T01:00:43.852Z,11.91
2018-10-05T01:03:11.879Z,11.90
2018-10-05T01:05:39.901Z,11.87
2018-10-05T01:08:07.927Z,11.85
2018-10-05T01:10:35.940Z,11.84
2018-10-05T01:13:05.031Z,11.82
2018-10-05T01:15:33.048Z,11.79
2018-10-05T01:18:01.080Z,11.77
2018-10-05T01:20:29.100Z,11.74
2018-10-05T01:22:57.120Z,11.72
2018-10-05T01:25:25.129Z,11.69
2018-10-05T01:27:53.149Z,11.66
2018-10-05T01:30:21.168Z,11.63
2018-10-05T01:32:49.191Z,11.61
2018-10-05T01:35:17.217Z,11.60
2018-10-05T01:37:45.240Z,11.57
2018-10-05T01:40:13.259Z,11.54
2018-10-05T01:42:41.273Z,11.51
2018-10-05T01:45:09.289Z,11.49
2018-10-05T01:47:37.312Z,11.45
2018-10-05T01:50:05.319Z,11.41
2018-10-05T01:52:33.387Z,11.39
2018-10-05T01:55:02.039Z,11.37
2018-10-05T01:57:30.154Z,11.34
2018-10-05T01:59:58.132Z,11.30
2018-10-05T02:02:26.154Z,11.28
2018-10-05T02:04:54.155Z,11.25
2018-10-05T02:07:22.176Z,11.23
2018-10-05T02:09:50.207Z,11.21
2018-10-05T02:12:18.216Z,11.17
2018-10-05T02:14:46.260Z,11.12
2018-10-05T02:17:14.273Z,11.09
2018-10-05T02:19:42.302Z,11.06
2018-10-05T02:22:10.327Z,11.05
2018-10-05T02:24:38.336Z,11.01
2018-10-05T02:27:06.368Z,10.98
2018-10-05T02:29:34.424Z,10.94
2018-10-05T02:32:02.464Z,10.92
2018-10-05T02:34:30.514Z,10.89
2018-10-05T02:36:58.532Z,10.87
2018-10-05T02:39:26.560Z,10.85
2018-10-05T02:41:54.579Z,10.84
2018-10-05T02:44:22.600Z,10.83
2018-10-05T02:46:50.613Z,10.81
2018-10-05T02:49:18.656Z,10.80
2018-10-05T02:51:46.672Z,10.75
2018-10-05T02:54:14.685Z,10.71
2018-10-05T02:56:42.710Z,10.69
2018-10-05T02:59:11.091Z,10.64
2018-10-05T03:01:50.518Z,10.62
2018-10-05T03:04:18.541Z,10.58
2018-10-05T03:06:46.728Z,10.56
2018-10-05T03:09:14.741Z,10.53
2018-10-05T03:11:42.759Z,10.51
2018-10-05T03:14:10.781Z,10.49
2018-10-05T03:16:38.800Z,10.47
2018-10-05T03:19:06.822Z,10.46
2018-10-05T03:21:34.844Z,10.44
2018-10-05T03:24:02.863Z,10.40
2018-10-05T03:26:30.899Z,10.39
2018-10-05T03:28:58.935Z,10.37
2018-10-05T03:31:26.955Z,10.36
2018-10-05T03:33:54.975Z,10.35
2018-10-05T03:36:23.016Z,10.33
2018-10-05T03:38:51.035Z,10.30
2018-10-05T03:41:32.384Z,10.29
2018-10-05T03:44:00.417Z,10.28
2018-10-05T03:46:28.464Z,10.28
2018-10-05T03:48:56.481Z,10.24
2018-10-05T03:51:24.508Z,10.24
2018-10-05T03:53:52.519Z,10.23
2018-10-05T03:56:20.539Z,10.22
2018-10-05T03:58:48.616Z,10.20
2018-10-05T04:01:16.619Z,10.17
2018-10-05T04:03:44.640Z,10.16
2018-10-05T04:06:12.648Z,10.13
2018-10-05T04:08:40.725Z,10.13
2018-10-05T04:11:09.375Z,10.10
2018-10-05T04:13:37.398Z,10.07
2018-10-05T04:16:05.431Z,10.05
2018-10-05T04:18:33.588Z,10.04
2018-10-05T04:21:01.796Z,10.02
2018-10-05T04:23:29.839Z,10.02
2018-10-05T04:25:58.012Z,10.02
2018-10-05T04:28:26.032Z,9.99
2018-10-05T04:30:54.047Z,9.98
2018-10-05T04:33:22.224Z,9.96
2018-10-05T04:35:50.232Z,9.94
2018-10-05T04:38:18.252Z,9.92
2018-10-05T04:40:46.450Z,9.91
2018-10-05T04:43:14.471Z,9.89
2018-10-05T04:45:42.479Z,9.87
2018-10-05T04:48:10.500Z,9.87
2018-10-05T04:50:38.519Z,9.83
2018-10-05T04:53:06.924Z,9.83
2018-10-05T04:55:34.928Z,9.81
2018-10-05T04:58:02.953Z,9.80
2018-10-05T05:00:30.960Z,9.78
2018-10-05T05:02:58.980Z,9.74
2018-10-05T05:05:26.999Z,9.70
2018-10-05T05:07:55.031Z,9.68
2018-10-05T05:10:23.036Z,9.67
2018-10-05T05:12:51.044Z,9.66
2018-10-05T05:15:19.050Z,9.63
2018-10-05T05:17:47.062Z,9.60
2018-10-05T05:20:15.084Z,9.56
2018-10-05T05:22:43.080Z,9.57
2018-10-05T05:25:11.084Z,9.56
2018-10-05T05:27:39.080Z,9.54
2018-10-05T05:30:07.348Z,9.53
2018-10-05T05:32:35.368Z,9.51
2018-10-05T05:35:03.383Z,9.49
2018-10-05T05:37:31.554Z,9.51
2018-10-05T05:39:59.568Z,9.49
2018-10-05T05:42:33.864Z,9.49
2018-10-05T05:45:01.868Z,9.49
2018-10-05T05:47:29.927Z,9.49
2018-10-05T05:49:58.099Z,9.49
2018-10-05T05:52:26.124Z,9.49
2018-10-05T05:54:54.139Z,9.48
2018-10-05T05:57:22.171Z,9.48
2018-10-05T05:59:50.293Z,9.47
2018-10-05T06:02:18.279Z,9.47
2018-10-05T06:04:46.304Z,9.47
2018-10-05T06:07:14.304Z,9.47
2018-10-05T06:09:42.328Z,9.49
2018-10-05T06:12:10.344Z,9.47
2018-10-05T06:14:38.375Z,9.48
2018-10-05T06:17:06.396Z,9.49
2018-10-05T06:19:34.421Z,9.51
2018-10-05T06:22:02.570Z,9.48
2018-10-05T06:24:30.488Z,9.50
2018-10-05T06:26:58.502Z,9.52
2018-10-05T06:29:26.514Z,9.54
2018-10-05T06:31:54.512Z,9.55
2018-10-05T06:34:22.601Z,9.57
2018-10-05T06:36:50.686Z,9.57
2018-10-05T06:39:18.763Z,9.57
2018-10-05T06:41:46.857Z,9.60
2018-10-05T06:44:15.003Z,9.61
2018-10-05T06:46:43.007Z,9.62
2018-10-05T06:49:11.027Z,9.64
2018-10-05T06:51:39.036Z,9.69
2018-10-05T06:54:07.060Z,9.74
2018-10-05T06:56:35.088Z,9.79
2018-10-05T06:59:03.122Z,9.82
2018-10-05T07:01:31.488Z,9.87
2018-10-05T07:03:59.473Z,9.90
2018-10-05T07:06:27.492Z,9.94
2018-10-05T07:08:55.528Z,9.98
2018-10-05T07:11:23.654Z,10.03
2018-10-05T07:13:51.659Z,10.08
2018-10-05T07:16:19.695Z,10.12
2018-10-05T07:18:47.764Z,10.20
2018-10-05T07:21:15.987Z,10.26
2018-10-05T07:23:44.035Z,10.31
2018-10-05T07:26:12.055Z,10.37
2018-10-05T07:28:47.300Z,10.44
2018-10-05T07:31:15.296Z,10.51
2018-10-05T07:33:43.382Z,10.56
2018-10-05T07:36:11.396Z,10.63
2018-10-05T07:38:39.820Z,10.70
2018-10-05T07:41:07.883Z,10.78
2018-10-05T07:43:35.958Z,10.86
2018-10-05T07:46:04.936Z,10.96
2018-10-05T07:48:33.030Z,11.04
2018-10-05T07:51:01.096Z,11.14
2018-10-05T07:53:29.116Z,11.22
2018-10-05T07:55:57.243Z,11.30
2018-10-05T07:58:25.283Z,11.40
2018-10-05T08:00:53.305Z,11.53
2018-10-05T08:03:21.327Z,11.68
2018-10-05T08:05:49.503Z,11.79
2018-10-05T08:08:17.667Z,11.88
2018-10-05T08:10:45.967Z,11.96
2018-10-05T08:13:14.035Z,12.05
2018-10-05T08:15:42.114Z,12.13
2018-10-05T08:18:10.136Z,12.25
2018-10-05T08:20:38.243Z,12.35
2018-10-05T08:23:06.483Z,12.44
2018-10-05T08:25:34.709Z,12.55
2018-10-05T08:28:02.792Z,12.67
2018-10-05T08:30:30.848Z,12.76
2018-10-05T08:32:58.919Z,12.93
2018-10-05T08:35:26.932Z,13.07
2018-10-05T08:37:54.979Z,13.17
2018-10-05T08:40:23.124Z,13.36
2018-10-05T08:42:51.157Z,13.54
2018-10-05T08:45:19.293Z,13.71
2018-10-05T08:47:47.308Z,13.90
2018-10-05T08:50:15.420Z,14.10
2018-10-05T08:52:43.493Z,14.24
2018-10-05T08:55:11.508Z,14.34
2018-10-05T08:57:39.603Z,14.45
2018-10-05T09:00:07.733Z,14.55
2018-10-05T09:02:35.754Z,14.65
2018-10-05T09:05:04.747Z,14.76
2018-10-05T09:07:32.747Z,14.93
2018-10-05T09:10:00.780Z,15.10
2018-10-05T09:12:28.959Z,15.25
2018-10-05T09:14:56.990Z,15.37
2018-10-05T09:17:25.068Z,15.53
2018-10-05T09:19:53.095Z,15.70
2018-10-05T09:22:21.121Z,15.94
2018-10-05T09:24:49.139Z,16.18
2018-10-05T09:27:17.176Z,16.39
2018-10-05T09:29:45.491Z,16.64
2018-10-05T09:32:13.556Z,16.89
2018-10-05T09:34:41.592Z,17.14
2018-10-05T09:37:09.621Z,17.39
2018-10-05T09:39:37.775Z,17.60
2018-10-05T09:42:06.106Z,17.73
2018-10-05T09:44:34.398Z,17.88
2018-10-05T09:47:02.648Z,18.06
2018-10-05T09:49:31.492Z,18.20
2018-10-05T09:51:59.639Z,18.29
2018-10-05T09:54:27.693Z,18.30
2018-10-05T09:56:55.767Z,18.32
2018-10-05T09:59:23.804Z,18.43
2018-10-05T10:01:56.096Z,18.56
2018-10-05T10:04:24.572Z,18.61
2018-10-05T10:06:52.675Z,18.71
2018-10-05T10:09:20.711Z,18.86
2018-10-05T10:11:48.735Z,18.97
2018-10-05T10:14:16.755Z,19.09
2018-10-05T10:16:44.817Z,19.14
2018-10-05T10:19:13.032Z,19.17
2018-10-05T10:21:41.096Z,19.23
2018-10-05T10:24:09.158Z,19.47
2018-10-05T10:26:37.191Z,19.72
2018-10-05T10:29:05.450Z,19.93
2018-10-05T10:31:33.681Z,20.11
2018-10-05T10:34:01.744Z,20.23
2018-10-05T10:36:29.789Z,20.46
2018-10-05T10:38:57.811Z,20.58
2018-10-05T10:41:25.815Z,20.77
2018-10-05T10:43:54.332Z,20.93
2018-10-05T10:46:22.356Z,21.07
2018-10-05T10:48:50.588Z,21.23
2018-10-05T10:51:19.155Z,21.35
2018-10-05T10:53:47.179Z,21.49
2018-10-05T10:56:15.379Z,21.73
2018-10-05T10:58:43.495Z,21.91
2018-10-05T11:01:11.512Z,22.17
2018-10-05T11:03:39.533Z,22.38
2018-10-05T11:06:07.579Z,22.54
2018-10-05T11:08:36.179Z,22.68
2018-10-05T11:11:05.342Z,22.83
2018-10-05T11:13:33.339Z,22.95
2018-10-05T11:16:01.699Z,23.02
2018-10-05T11:18:29.827Z,23.02
2018-10-05T11:20:57.848Z,23.06
2018-10-05T11:23:26.222Z,23.18
2018-10-05T11:25:54.251Z,23.25
2018-10-05T11:28:22.266Z,23.23
2018-10-05T11:30:50.291Z,23.31
2018-10-05T11:33:19.545Z,23.48
2018-10-05T11:35:47.807Z,23.52
2018-10-05T11:38:15.951Z,23.55
2018-10-05T11:40:44.033Z,23.72
2018-10-05T11:43:12.024Z,23.78
2018-10-05T11:45:40.107Z,23.79
2018-10-05T11:48:08.111Z,23.80
2018-10-05T11:50:36.128Z,23.80
2018-10-05T11:53:05.401Z,23.86
2018-10-05T11:55:33.907Z,24.07
2018-10-05T11:58:01.984Z,24.01
2018-10-05T12:00:29.992Z,24.00
2018-10-05T12:02:58.025Z,24.07
2018-10-05T12:05:26.053Z,24.07
2018-10-05T12:07:54.695Z,24.19
2018-10-05T12:10:22.963Z,24.25
2018-10-05T12:12:50.979Z,24.24
2018-10-05T12:15:19.096Z,24.32
2018-10-05T12:17:47.472Z,24.46
2018-10-05T12:20:15.484Z,24.43
2018-10-05T12:22:43.516Z,24.39
2018-10-05T12:25:11.996Z,24.32
2018-10-05T12:27:40.006Z,24.38
2018-10-05T12:30:08.029Z,24.59
2018-10-05T12:32:36.214Z,24.61
2018-10-05T12:35:05.219Z,24.61
2018-10-05T12:37:33.260Z,24.71
2018-10-05T12:40:01.307Z,24.74
2018-10-05T12:42:30.631Z,24.91
2018-10-05T12:44:59.241Z,24.95
2018-10-05T12:47:27.397Z,25.00
2018-10-05T12:49:55.474Z,25.07
2018-10-05T12:52:23.720Z,25.14
2018-10-05T12:54:51.756Z,25.26
2018-10-05T12:57:19.864Z,25.28
2018-10-05T12:59:47.880Z,25.32
2018-10-05T13:02:15.907Z,25.25
2018-10-05T13:04:44.260Z,25.24
2018-10-05T13:07:12.219Z,25.26
2018-10-05T13:09:40.354Z,25.28
2018-10-05T13:12:08.364Z,25.33
2018-10-05T13:14:36.493Z,25.40
2018-10-05T13:17:05.068Z,25.38
2018-10-05T13:19:33.087Z,25.30
2018-10-05T13:22:01.201Z,25.34
2018-10-05T13:24:29.395Z,25.32
2018-10-05T13:26:57.459Z,25.31
2018-10-05T13:29:25.771Z,25.31
2018-10-05T13:31:53.796Z,25.21
2018-10-05T13:34:21.818Z,25.23
2018-10-05T13:36:50.059Z,25.07
2018-10-05T13:39:18.091Z,25.04
2018-10-05T13:41:46.250Z,25.08
2018-10-05T13:44:14.243Z,25.19
2018-10-05T13:46:42.260Z,25.03
2018-10-05T13:49:10.416Z,25.11
2018-10-05T13:51:38.427Z,25.09
2018-10-05T13:54:06.828Z,25.06
2018-10-05T13:56:45.008Z,25.00
2018-10-05T13:59:13.047Z,25.01
2018-10-05T14:01:41.216Z,25.06
2018-10-05T14:04:09.311Z,25.16
2018-10-05T14:06:37.639Z,25.17
2018-10-05T14:09:25.372Z,25.11
2018-10-05T14:11:53.408Z,25.04
2018-10-05T14:14:21.428Z,24.95
2018-10-05T14:16:59.064Z,24.91
2018-10-05T14:19:27.184Z,24.86
2018-10-05T14:21:55.593Z,24.92
2018-10-05T14:24:23.623Z,24.94
2018-10-05T14:26:51.706Z,24.85
2018-10-05T14:29:31.399Z,24.85
2018-10-05T14:31:59.513Z,24.88
2018-10-05T14:34:27.538Z,24.95
2018-10-05T14:36:55.665Z,24.96
2018-10-05T14:39:23.695Z,24.93
2018-10-05T14:41:52.004Z,24.83
2018-10-05T14:44:19.968Z,24.79
2018-10-05T14:46:47.981Z,24.74
2018-10-05T14:49:16.069Z,24.66
2018-10-05T14:51:44.080Z,24.59
2018-10-05T14:54:12.128Z,24.53
2018-10-05T14:56:40.317Z,24.51
2018-10-05T14:59:08.596Z,24.43
2018-10-05T15:01:37.201Z,24.41
2018-10-05T15:04:05.224Z,24.36
2018-10-05T15:06:33.406Z,24.28
2018-10-05T15:09:01.767Z,24.23
2018-10-05T15:11:29.820Z,24.22
2018-10-05T15:13:57.839Z,24.22
2018-10-05T15:16:25.847Z,24.21
2018-10-05T15:18:54.747Z,24.20
2018-10-05T15:21:22.834Z,24.10
2018-10-05T15:23:50.776Z,24.02
2018-10-05T15:26:18.788Z,23.98
2018-10-05T15:28:46.983Z,23.92
2018-10-05T15:31:15.693Z,23.85
2018-10-05T15:33:43.735Z,23.81
2018-10-05T15:36:11.768Z,23.75
2018-10-05T15:38:39.836Z,23.70
2018-10-05T15:41:07.983Z,23.66
2018-10-05T15:43:36.636Z,23.64
2018-10-05T15:46:07.479Z,23.60
2018-10-05T15:48:35.836Z,23.54
2018-10-05T15:51:04.411Z,23.49
2018-10-05T15:53:32.931Z,23.42
2018-10-05T15:56:01.091Z,23.37
2018-10-05T15:58:29.156Z,23.28
2018-10-05T16:00:57.439Z,23.22
2018-10-05T16:03:25.461Z,23.15
2018-10-05T16:05:53.578Z,23.07
2018-10-05T16:08:21.536Z,22.98
2018-10-05T16:10:49.551Z,22.88
2018-10-05T16:13:17.595Z,22.78
2018-10-05T16:15:45.601Z,22.67
2018-10-05T16:18:15.126Z,22.54
2018-10-05T16:20:43.116Z,22.44
2018-10-05T16:23:11.135Z,22.29
2018-10-05T16:25:39.339Z,22.16
2018-10-05T16:28:07.429Z,22.03
2018-10-05T16:30:35.689Z,21.88
2018-10-05T16:33:04.751Z,21.74
2018-10-05T16:35:32.772Z,21.60
2018-10-05T16:38:00.793Z,21.50
2018-10-05T16:40:29.244Z,21.37
2018-10-05T16:42:58.163Z,21.23
2018-10-05T16:45:26.175Z,21.10
2018-10-05T16:47:54.293Z,20.98
2018-10-05T16:50:22.501Z,20.85
2018-10-05T16:52:50.559Z,20.71
2018-10-05T16:55:18.572Z,20.56
2018-10-05T16:57:46.592Z,20.42
2018-10-05T17:00:14.798Z,20.29
2018-10-05T17:02:43.013Z,20.17
2018-10-05T17:05:11.016Z,20.03
2018-10-05T17:07:39.086Z,19.90
2018-10-05T17:10:07.657Z,19.78
2018-10-05T17:12:36.688Z,19.65
2018-10-05T17:15:05.516Z,19.53
2018-10-05T17:17:33.551Z,19.40
2018-10-05T17:20:01.577Z,19.25
2018-10-05T17:22:29.609Z,19.11
2018-10-05T17:24:57.662Z,18.98
2018-10-05T17:27:26.696Z,18.86
2018-10-05T17:29:54.711Z,18.72
2018-10-05T17:32:23.764Z,18.59
2018-10-05T17:34:51.843Z,18.41
2018-10-05T17:37:19.832Z,18.29
2018-10-05T17:39:47.871Z,18.17
2018-10-05T17:42:15.881Z,18.06
2018-10-05T17:44:44.047Z,17.97
2018-10-05T17:47:12.066Z,17.88
2018-10-05T17:49:40.119Z,17.81
2018-10-05T17:52:08.213Z,17.73
2018-10-05T17:54:36.327Z,17.65
2018-10-05T17:57:05.016Z,17.58
2018-10-05T17:59:34.092Z,17.48
2018-10-05T18:02:02.130Z,17.37
2018-10-05T18:04:30.148Z,17.29
2018-10-05T18:06:58.960Z,17.21
2018-10-05T18:09:27.005Z,17.10
2018-10-05T18:11:55.016Z,17.00
2018-10-05T18:14:23.055Z,16.91
2018-10-05T18:16:51.079Z,16.80
2018-10-05T18:19:19.107Z,16.73
2018-10-05T18:21:47.124Z,16.67
2018-10-05T18:24:15.318Z,16.60
2018-10-05T18:26:43.428Z,16.55
2018-10-05T18:29:11.457Z,16.50
2018-10-05T18:31:39.513Z,16.42
2018-10-05T18:34:08.570Z,16.35
2018-10-05T18:36:36.556Z,16.25
2018-10-05T18:39:07.177Z,16.16
2018-10-05T18:41:35.201Z,16.10
2018-10-05T18:44:03.249Z,16.02
2018-10-05T18:46:31.437Z,15.95
2018-10-05T18:48:59.456Z,15.89
2018-10-05T18:51:27.503Z,15.82
2018-10-05T18:53:55.531Z,15.76
2018-10-05T18:56:34.833Z,15.68
2018-10-05T18:59:03.487Z,15.61
2018-10-05T19:01:31.931Z,15.55
2018-10-05T19:03:59.968Z,15.49
2018-10-05T19:06:28.006Z,15.44
2018-10-05T19:08:56.024Z,15.39
2018-10-05T19:11:24.060Z,15.32
2018-10-05T19:13:52.071Z,15.27
2018-10-05T19:16:20.142Z,15.17
2018-10-05T19:18:50.199Z,15.09
2018-10-05T19:21:19.216Z,15.06
2018-10-05T19:23:47.239Z,15.01
2018-10-05T19:26:15.365Z,14.96
2018-10-05T19:28:43.940Z,14.93
2018-10-05T19:31:12.064Z,14.86
2018-10-05T19:33:40.151Z,14.82
2018-10-05T19:36:08.258Z,14.76
2018-10-05T19:38:36.223Z,14.71
2018-10-05T19:41:04.570Z,14.65
2018-10-05T19:43:32.567Z,14.59
2018-10-05T19:46:00.575Z,14.55
2018-10-05T19:48:28.592Z,14.51
2018-10-05T19:50:56.604Z,14.48
2018-10-05T19:53:25.748Z,14.45
2018-10-05T19:55:54.340Z,14.38
2018-10-05T19:58:22.369Z,14.34
2018-10-05T20:00:50.392Z,14.32
2018-10-05T20:03:18.402Z,14.25
2018-10-05T20:05:46.424Z,14.21
2018-10-05T20:08:14.448Z,14.17
2018-10-05T20:10:42.995Z,14.12
2018-10-05T20:13:11.032Z,14.07
2018-10-05T20:15:39.063Z,14.01
2018-10-05T20:18:07.492Z,13.98
2018-10-05T20:20:35.264Z,13.91
2018-10-05T20:23:03.288Z,13.87
2018-10-05T20:25:31.569Z,13.84
2018-10-05T20:28:00.235Z,13.81
2018-10-05T20:30:28.267Z,13.75
2018-10-05T20:32:56.452Z,13.65
2018-10-05T20:35:30.716Z,13.59
2018-10-05T20:38:10.036Z,13.56
2018-10-05T20:40:38.060Z,13.52
2018-10-05T20:43:06.092Z,13.48
2018-10-05T20:45:34.424Z,13.43
2018-10-05T20:48:02.476Z,13.38
2018-10-05T20:50:30.505Z,13.32
2018-10-05T20:52:58.687Z,13.30
2018-10-05T20:55:26.732Z,13.29
2018-10-05T20:57:54.753Z,13.26
2018-10-05T21:00:22.788Z,13.23
2018-10-05T21:02:50.800Z,13.22
2018-10-05T21:05:18.816Z,13.17
2018-10-05T21:07:46.830Z,13.11
2018-10-05T21:10:15.232Z,13.07
2018-10-05T21:12:43.260Z,13.03
2018-10-05T21:15:11.511Z,13.01
2018-10-05T21:17:39.476Z,12.97
2018-10-05T21:20:07.573Z,12.93
2018-10-05T21:22:35.599Z,12.92
2018-10-05T21:25:04.708Z,12.85
2018-10-05T21:27:32.726Z,12.80
2018-10-05T21:30:00.748Z,12.79
2018-10-05T21:32:28.772Z,12.74
2018-10-05T21:34:56.807Z,12.68
2018-10-05T21:37:24.976Z,12.64
2018-10-05T21:39:53.016Z,12.61
2018-10-05T21:42:21.047Z,12.61
2018-10-05T21:44:49.236Z,12.57
2018-10-05T21:47:17.233Z,12.53
2018-10-05T21:49:45.252Z,12.51
2018-10-05T21:52:13.541Z,12.47
2018-10-05T21:54:41.478Z,12.42
2018-10-05T21:57:09.504Z,12.39
2018-10-05T21:59:38.116Z,12.36
2018-10-05T22:02:06.135Z,12.36
2018-10-05T22:04:34.172Z,12.35
2018-10-05T22:07:02.186Z,12.30
2018-10-05T22:09:30.356Z,12.27
2018-10-05T22:11:58.367Z,12.22
2018-10-05T22:14:27.294Z,12.19
2018-10-05T22:16:55.362Z,12.16
2018-10-05T22:19:23.412Z,12.13
2018-10-05T22:21:51.416Z,12.12
2018-10-05T22:24:19.448Z,12.08
2018-10-05T22:26:47.475Z,12.05
2018-10-05T22:29:15.483Z,12.03
2018-10-05T22:31:43.500Z,11.98
2018-10-05T22:34:11.716Z,11.92
2018-10-05T22:36:39.808Z,11.90
2018-10-05T22:39:07.860Z,11.87
2018-10-05T22:41:36.017Z,11.82
2018-10-05T22:44:05.084Z,11.80
2018-10-05T22:46:33.312Z,11.77
2018-10-05T22:49:01.360Z,11.76
2018-10-05T22:51:29.379Z,11.74
2018-10-05T22:53:57.406Z,11.72
2018-10-05T22:56:25.593Z,11.70
2018-10-05T22:58:53.615Z,11.64
2018-10-05T23:01:21.731Z,11.62
2018-10-05T23:03:49.748Z,11.59
2018-10-05T23:06:17.895Z,11.53
2018-10-05T23:08:45.936Z,11.45
2018-10-05T23:11:13.975Z,11.42
2018-10-05T23:13:42.003Z,11.40
2018-10-05T23:16:10.035Z,11.39
2018-10-05T23:18:38.052Z,11.38
2018-10-05T23:21:06.312Z,11.40
2018-10-05T23:23:34.899Z,11.37
2018-10-05T23:26:02.908Z,11.34
2018-10-05T23:28:30.956Z,11.33
2018-10-05T23:30:59.123Z,11.30
2018-10-05T23:33:27.136Z,11.29
2018-10-05T23:35:55.148Z,11.27
2018-10-05T23:38:23.175Z,11.28
2018-10-05T23:40:51.347Z,11.26
2018-10-05T23:43:19.356Z,11.24
2018-10-05T23:45:47.372Z,11.25
2018-10-05T23:48:15.392Z,11.25
2018-10-05T23:50:43.411Z,11.23
2018-10-05T23:53:11.408Z,11.20
2018-10-05T23:55:39.452Z,11.19
2018-10-05T23:58:07.603Z,11.16
